createdAt,value
2019-04-06T00:00:34.753Z,53.48
2019-04-06T00:03:02.356Z,53.55
2019-04-06T00:05:30.790Z,56.55
2019-04-06T00:07:58.367Z,55.85
2019-04-06T00:10:26.177Z,54.40
2019-04-06T00:12:53.794Z,51.15
2019-04-06T00:15:21.023Z,54.93
2019-04-06T00:17:48.507Z,55.80
2019-04-06T00:20:16.202Z,56.83
2019-04-06T00:22:43.926Z,55.92
2019-04-06T00:25:12.422Z,62.53
2019-04-06T00:27:40.042Z,67.30
2019-04-06T00:30:08.724Z,65.00
2019-04-06T00:32:42.665Z,58.52
2019-04-06T00:35:10.841Z,72.15
2019-04-06T00:37:38.388Z,69.00
2019-04-06T00:40:06.566Z,61.92
2019-04-06T00:42:34.209Z,65.32
2019-04-06T00:45:01.805Z,67.12
2019-04-06T00:47:29.880Z,66.33
2019-04-06T00:49:57.932Z,62.93
2019-04-06T00:52:25.914Z,69.72
2019-04-06T00:54:53.436Z,60.52
2019-04-06T00:57:21.031Z,65.25
2019-04-06T00:59:51.347Z,63.02
2019-04-06T01:02:18.946Z,63.38
2019-04-06T01:04:46.652Z,60.10
2019-04-06T01:07:15.005Z,62.20
2019-04-06T01:09:43.026Z,59.30
2019-04-06T01:12:10.469Z,59.27
2019-04-06T01:14:38.193Z,56.80
2019-04-06T01:17:05.781Z,60.00
2019-04-06T01:19:35.357Z,58.83
2019-04-06T01:22:03.235Z,57.17
2019-04-06T01:24:31.039Z,58.48
2019-04-06T01:26:59.541Z,60.25
2019-04-06T01:29:27.680Z,64.65
2019-04-06T01:31:55.708Z,57.88
2019-04-06T01:34:23.295Z,56.65
2019-04-06T01:36:51.384Z,60.60
2019-04-06T01:39:19.143Z,56.10
2019-04-06T01:41:46.925Z,58.00
2019-04-06T01:44:15.156Z,60.90
2019-04-06T01:46:42.587Z,56.00
2019-04-06T01:49:10.169Z,60.10
2019-04-06T01:51:37.681Z,61.65
2019-04-06T01:54:05.231Z,56.85
2019-04-06T01:56:32.915Z,56.73
2019-04-06T01:59:00.626Z,56.18
2019-04-06T02:01:41.249Z,54.20
2019-04-06T02:04:08.965Z,52.00
2019-04-06T02:06:38.177Z,57.40
2019-04-06T02:09:06.048Z,56.73
2019-04-06T02:11:34.027Z,58.87
2019-04-06T02:14:01.464Z,52.40
2019-04-06T02:16:29.300Z,54.65
2019-04-06T02:18:56.889Z,58.20
2019-04-06T02:21:26.246Z,55.35
2019-04-06T02:23:53.843Z,57.80
2019-04-06T02:26:30.136Z,55.70
2019-04-06T02:28:50.704Z,57.58
2019-04-06T02:31:28.127Z,51.30
2019-04-06T02:34:11.602Z,57.03
2019-04-06T02:36:58.094Z,55.30
2019-04-06T02:39:45.086Z,57.15
2019-04-06T02:42:17.294Z,56.40
2019-04-06T02:44:45.261Z,54.08
2019-04-06T02:47:13.771Z,51.95
2019-04-06T02:49:41.203Z,57.20
2019-04-06T02:52:09.347Z,57.93
2019-04-06T02:54:36.927Z,54.58
2019-04-06T02:57:04.627Z,54.40
2019-04-06T02:59:32.243Z,54.75
2019-04-06T03:01:59.909Z,54.58
2019-04-06T03:04:27.845Z,52.85
2019-04-06T03:06:56.165Z,52.90
2019-04-06T03:09:23.748Z,58.48
2019-04-06T03:11:51.292Z,55.23
2019-04-06T03:14:19.067Z,55.78
2019-04-06T03:16:46.494Z,57.62
2019-04-06T03:19:13.889Z,53.55
2019-04-06T03:21:41.918Z,51.08
2019-04-06T03:24:09.698Z,52.10
2019-04-06T03:26:37.185Z,50.35
2019-04-06T03:29:04.813Z,52.58
2019-04-06T03:31:32.746Z,51.13
2019-04-06T03:34:00.854Z,56.30
2019-04-06T03:36:28.491Z,52.43
2019-04-06T03:38:56.108Z,57.60
2019-04-06T03:41:23.994Z,61.42
2019-04-06T03:43:51.876Z,53.25
2019-04-06T03:46:19.571Z,54.35
2019-04-06T03:48:47.273Z,56.33
2019-04-06T03:51:14.781Z,64.25
2019-04-06T03:53:42.658Z,57.88
2019-04-06T03:56:11.946Z,61.63
2019-04-06T03:58:39.862Z,61.53
2019-04-06T04:01:07.296Z,59.03
2019-04-06T04:03:35.038Z,56.73
2019-04-06T04:06:02.680Z,60.17
2019-04-06T04:08:30.353Z,60.95
2019-04-06T04:10:59.506Z,59.98
2019-04-06T04:13:27.109Z,55.85
2019-04-06T04:15:57.205Z,58.25
2019-04-06T04:18:25.913Z,55.98
2019-04-06T04:20:53.493Z,57.62
2019-04-06T04:23:21.003Z,57.60
2019-04-06T04:25:49.019Z,57.03
2019-04-06T04:28:17.356Z,58.17
2019-04-06T04:30:44.863Z,63.45
2019-04-06T04:33:14.185Z,62.00
2019-04-06T04:35:41.956Z,57.10
2019-04-06T04:38:09.653Z,58.75
2019-04-06T04:40:38.096Z,57.20
2019-04-06T04:43:07.187Z,61.08
2019-04-06T04:45:34.730Z,57.45
2019-04-06T04:48:02.390Z,58.58
2019-04-06T04:50:30.153Z,55.88
2019-04-06T04:52:57.852Z,56.92
2019-04-06T04:55:26.008Z,61.15
2019-04-06T04:57:54.247Z,60.70
2019-04-06T05:00:22.187Z,58.02
2019-04-06T05:02:50.295Z,55.70
2019-04-06T05:05:17.840Z,61.05
2019-04-06T05:07:45.384Z,55.33
2019-04-06T05:10:14.687Z,60.25
2019-04-06T05:12:44.098Z,63.60
2019-04-06T05:15:14.915Z,63.17
2019-04-06T05:17:42.489Z,63.52
2019-04-06T05:20:10.481Z,69.05
2019-04-06T05:22:38.540Z,74.53
2019-04-06T05:25:07.268Z,66.17
2019-04-06T05:27:34.914Z,67.47
2019-04-06T05:30:03.453Z,64.03
2019-04-06T05:32:31.044Z,59.83
2019-04-06T05:35:00.122Z,58.90
2019-04-06T05:37:27.940Z,63.33
2019-04-06T05:39:55.666Z,56.73
2019-04-06T05:42:23.377Z,58.52
2019-04-06T05:44:51.375Z,52.62
2019-04-06T05:47:19.301Z,55.92
2019-04-06T05:49:47.355Z,55.35
2019-04-06T05:52:15.272Z,57.48
2019-04-06T05:54:43.784Z,56.60
2019-04-06T05:57:11.649Z,52.45
2019-04-06T05:59:40.970Z,61.00
2019-04-06T06:02:09.958Z,54.55
2019-04-06T06:04:40.277Z,54.03
2019-04-06T06:07:08.147Z,57.30
2019-04-06T06:09:36.414Z,58.90
2019-04-06T06:12:03.944Z,51.15
2019-04-06T06:14:31.601Z,54.15
2019-04-06T06:16:59.200Z,53.90
2019-04-06T06:19:27.735Z,56.73
2019-04-06T06:21:55.458Z,52.43
2019-04-06T06:24:23.279Z,52.25
2019-04-06T06:26:51.387Z,53.55
2019-04-06T06:29:19.435Z,57.08
2019-04-06T06:31:47.413Z,54.75
2019-04-06T06:34:14.976Z,52.53
2019-04-06T06:36:42.517Z,54.48
2019-04-06T06:39:10.978Z,46.50
2019-04-06T06:41:39.889Z,60.75
2019-04-06T06:44:07.355Z,55.08
2019-04-06T06:46:36.312Z,55.88
2019-04-06T06:49:03.809Z,56.75
2019-04-06T06:51:31.337Z,52.43
2019-04-06T06:53:59.625Z,53.90
2019-04-06T06:56:29.200Z,55.35
2019-04-06T06:58:57.918Z,54.98
2019-04-06T07:01:26.527Z,56.60
2019-04-06T07:03:54.051Z,59.65
2019-04-06T07:06:24.481Z,55.03
2019-04-06T07:08:52.141Z,54.27
2019-04-06T07:11:20.125Z,49.38
2019-04-06T07:13:47.922Z,55.65
2019-04-06T07:16:15.914Z,54.60
2019-04-06T07:18:44.021Z,55.65
2019-04-06T07:21:11.665Z,59.03
2019-04-06T07:32:28.101Z,55.30
2019-04-06T07:34:56.203Z,57.58
2019-04-06T07:37:23.801Z,61.73
2019-04-06T07:39:52.180Z,55.00
2019-04-06T07:42:19.729Z,59.13
2019-04-06T07:44:47.805Z,55.38
2019-04-06T07:47:15.768Z,54.08
2019-04-06T07:49:46.344Z,53.92
2019-04-06T07:52:15.613Z,59.60
2019-04-06T07:54:43.089Z,57.27
2019-04-06T07:57:10.958Z,52.98
2019-04-06T07:59:38.581Z,55.30
2019-04-06T08:02:07.170Z,57.93
2019-04-06T08:04:35.216Z,55.80
2019-04-06T08:07:03.521Z,54.18
2019-04-06T08:09:33.344Z,58.85
2019-04-06T08:12:01.459Z,52.27
2019-04-06T08:14:29.389Z,54.60
2019-04-06T08:16:56.959Z,49.40
2019-04-06T08:19:24.395Z,49.65
2019-04-06T08:21:52.526Z,47.00
2019-04-06T08:24:20.594Z,50.25
2019-04-06T08:26:49.575Z,48.20
2019-04-06T08:29:18.025Z,46.92
2019-04-06T08:31:45.744Z,44.50
2019-04-06T08:34:14.266Z,46.15
2019-04-06T08:36:42.063Z,46.83
2019-04-06T08:39:10.398Z,42.88
2019-04-06T08:41:38.114Z,44.18
2019-04-06T08:44:06.021Z,38.05
2019-04-06T08:46:33.683Z,39.92
2019-04-06T08:49:02.275Z,40.88
2019-04-06T08:51:31.377Z,38.78
2019-04-06T08:53:59.992Z,38.92
2019-04-06T08:56:28.404Z,41.98
2019-04-06T08:58:55.942Z,39.55
2019-04-06T09:01:23.892Z,41.08
2019-04-06T09:03:52.692Z,44.33
2019-04-06T09:06:21.397Z,35.80
2019-04-06T09:08:50.198Z,38.02
2019-04-06T09:11:19.150Z,34.45
2019-04-06T09:13:46.856Z,35.83
2019-04-06T09:16:15.564Z,35.85
2019-04-06T09:18:44.118Z,38.65
2019-04-06T09:21:12.980Z,38.23
2019-04-06T09:23:40.995Z,38.80
2019-04-06T09:26:08.605Z,39.08
2019-04-06T09:28:37.596Z,39.48
2019-04-06T09:31:05.327Z,36.88
2019-04-06T09:33:34.263Z,33.67
2019-04-06T09:36:02.488Z,32.88
2019-04-06T09:38:30.716Z,29.87
2019-04-06T09:40:58.419Z,36.13
2019-04-06T09:43:26.485Z,34.27
2019-04-06T09:46:26.654Z,28.17
2019-04-06T09:49:12.448Z,31.30
2019-04-06T09:52:10.365Z,35.00
2019-04-06T09:54:50.125Z,33.65
2019-04-06T09:57:30.976Z,34.08
2019-04-06T10:02:38.894Z,29.00
2019-04-06T10:05:38.593Z,33.10
2019-04-06T10:08:24.617Z,34.33
2019-04-06T10:11:14.739Z,30.52
2019-04-06T10:14:08.581Z,41.00
2019-04-06T10:17:02.597Z,28.50
2019-04-06T10:19:46.216Z,33.33
2019-04-06T10:22:38.894Z,24.05
2019-04-06T10:25:15.589Z,30.77
2019-04-06T10:27:51.094Z,20.17
2019-04-06T10:30:49.014Z,27.98
2019-04-06T10:33:28.257Z,25.85
2019-04-06T10:36:14.287Z,26.55
2019-04-06T10:39:01.900Z,31.62
2019-04-06T10:41:53.269Z,28.80
2019-04-06T10:44:39.035Z,26.65
2019-04-06T10:47:14.030Z,26.95
2019-04-06T10:49:49.327Z,27.05
2019-04-06T10:52:36.327Z,25.35
2019-04-06T10:55:25.994Z,24.55
2019-04-06T10:58:10.880Z,26.33
2019-04-06T11:00:55.681Z,21.10
2019-04-06T11:03:48.926Z,21.60
2019-04-06T11:06:32.123Z,20.37
2019-04-06T11:09:18.891Z,17.27
2019-04-06T11:12:05.901Z,20.17
2019-04-06T11:15:03.466Z,19.52
2019-04-06T11:17:51.692Z,20.40
2019-04-06T11:20:34.979Z,17.20
2019-04-06T11:23:33.653Z,19.55
2019-04-06T11:26:19.969Z,17.27
2019-04-06T11:29:04.673Z,22.30
2019-04-06T11:31:53.290Z,17.73
2019-04-06T11:34:41.020Z,16.32
2019-04-06T11:37:22.628Z,17.92
2019-04-06T11:40:12.223Z,16.65
2019-04-06T11:42:57.584Z,13.58
2019-04-06T11:45:36.373Z,16.40
2019-04-06T11:48:29.698Z,17.27
2019-04-06T11:51:14.218Z,14.00
2019-04-06T11:54:04.190Z,14.20
2019-04-06T11:56:45.995Z,13.95
2019-04-06T11:59:49.391Z,14.10
2019-04-06T12:02:42.144Z,13.48
2019-04-06T12:05:23.850Z,13.50
2019-04-06T12:08:17.856Z,15.43
2019-04-06T12:11:11.297Z,14.43
2019-04-06T12:13:58.482Z,12.15
2019-04-06T12:16:46.005Z,14.20
2019-04-06T12:19:33.208Z,15.63
2019-04-06T12:22:22.832Z,12.68
2019-04-06T12:25:09.421Z,13.83
2019-04-06T12:28:00.253Z,14.95
2019-04-06T12:30:38.689Z,14.03
2019-04-06T12:33:40.194Z,15.35
2019-04-06T12:36:15.835Z,11.95
2019-04-06T12:39:21.354Z,13.68
2019-04-06T12:42:08.344Z,14.35
2019-04-06T12:44:55.500Z,11.78
2019-04-06T12:47:41.251Z,14.55
2019-04-06T12:50:26.378Z,13.32
2019-04-06T12:53:26.372Z,11.40
2019-04-06T12:56:20.888Z,14.00
2019-04-06T12:58:58.462Z,14.03
2019-04-06T13:01:43.988Z,12.80
2019-04-06T13:04:30.934Z,12.68
2019-04-06T13:07:27.225Z,12.28
2019-04-06T13:10:14.478Z,13.18
2019-04-06T13:13:11.218Z,13.45
2019-04-06T13:16:06.562Z,13.70
2019-04-06T13:18:56.720Z,13.65
2019-04-06T13:21:49.837Z,13.00
2019-04-06T13:24:34.561Z,14.63
2019-04-06T13:27:24.412Z,12.75
2019-04-06T13:30:00.991Z,12.27
2019-04-06T13:32:38.984Z,13.43
2019-04-06T13:35:25.278Z,12.23
2019-04-06T13:38:00.511Z,12.70
2019-04-06T13:40:46.391Z,11.78
2019-04-06T13:43:40.943Z,15.25
2019-04-06T13:46:42.979Z,12.78
2019-04-06T13:49:28.746Z,12.63
2019-04-06T13:52:09.478Z,12.70
2019-04-06T13:54:56.535Z,17.57
2019-04-06T13:57:43.690Z,10.58
2019-04-06T14:00:30.200Z,11.85
2019-04-06T14:03:15.958Z,14.60
2019-04-06T14:06:15.348Z,13.43
2019-04-06T14:08:58.716Z,13.00
2019-04-06T14:11:41.936Z,15.35
2019-04-06T14:14:29.907Z,14.65
2019-04-06T14:17:25.080Z,12.13
2019-04-06T14:20:24.922Z,11.55
2019-04-06T14:23:11.928Z,13.40
2019-04-06T14:26:11.127Z,12.60
2019-04-06T14:28:52.225Z,16.55
2019-04-06T14:31:41.113Z,13.28
2019-04-06T14:34:22.932Z,12.25
2019-04-06T14:37:22.545Z,16.02
2019-04-06T14:40:08.874Z,15.35
2019-04-06T14:42:59.511Z,12.68
2019-04-06T14:45:45.464Z,15.20
2019-04-06T14:48:24.489Z,15.25
2019-04-06T14:51:09.998Z,12.50
2019-04-06T14:53:46.244Z,11.45
2019-04-06T14:56:25.447Z,13.90
2019-04-06T14:59:12.591Z,11.43
2019-04-06T15:01:57.828Z,11.50
2019-04-06T15:04:31.098Z,14.18
2019-04-06T15:07:24.403Z,13.20
2019-04-06T15:09:58.136Z,12.00
2019-04-06T15:12:43.544Z,16.77
2019-04-06T15:15:36.688Z,11.00
2019-04-06T15:18:16.115Z,11.48
2019-04-06T15:20:59.727Z,10.18
2019-04-06T15:23:37.626Z,12.63
2019-04-06T15:26:20.673Z,12.05
2019-04-06T15:29:08.299Z,10.15
2019-04-06T15:32:01.028Z,9.63
2019-04-06T15:34:45.567Z,14.87
2019-04-06T15:37:36.544Z,10.48
2019-04-06T15:40:33.356Z,9.48
2019-04-06T15:43:20.292Z,10.65
2019-04-06T15:46:07.531Z,9.68
2019-04-06T15:48:57.910Z,9.70
2019-04-06T15:51:33.813Z,12.07
2019-04-06T15:54:19.840Z,8.73
2019-04-06T15:56:56.529Z,10.03
2019-04-06T15:59:46.167Z,9.55
2019-04-06T16:02:31.616Z,9.30
2019-04-06T16:05:19.129Z,11.88
2019-04-06T16:08:24.536Z,10.98
2019-04-06T16:11:20.804Z,10.40
2019-04-06T16:14:13.723Z,9.98
2019-04-06T16:16:48.009Z,10.70
2019-04-06T16:19:22.415Z,10.13
2019-04-06T16:22:12.671Z,12.10
2019-04-06T16:24:50.569Z,10.60
2019-04-06T16:27:25.656Z,12.73
2019-04-06T16:30:11.349Z,10.28
2019-04-06T16:33:09.053Z,11.43
2019-04-06T16:35:48.406Z,10.58
2019-04-06T16:38:38.706Z,15.00
2019-04-06T16:41:29.086Z,14.20
2019-04-06T16:44:10.258Z,16.82
2019-04-06T16:46:55.975Z,12.30
2019-04-06T16:49:41.381Z,14.85
2019-04-06T16:52:32.605Z,12.90
2019-04-06T16:55:17.764Z,12.82
2019-04-06T16:58:03.287Z,12.85
2019-04-06T17:00:50.755Z,12.20
2019-04-06T17:03:34.179Z,11.12
2019-04-06T17:06:20.418Z,11.03
2019-04-06T17:08:56.638Z,15.23
2019-04-06T17:11:42.345Z,11.03
2019-04-06T17:14:34.920Z,10.55
2019-04-06T17:17:22.125Z,10.50
2019-04-06T17:20:11.841Z,10.35
2019-04-06T17:23:02.058Z,11.18
2019-04-06T17:25:47.991Z,10.48
2019-04-06T17:28:34.080Z,11.03
2019-04-06T17:31:09.811Z,13.10
2019-04-06T17:33:51.423Z,9.13
2019-04-06T17:36:28.701Z,8.43
2019-04-06T17:39:14.502Z,9.85
2019-04-06T17:42:19.943Z,8.03
2019-04-06T17:45:10.377Z,10.78
2019-04-06T17:48:10.092Z,11.85
2019-04-06T17:51:11.611Z,11.88
2019-04-06T17:53:46.540Z,12.53
2019-04-06T17:56:36.112Z,10.38
2019-04-06T17:59:24.918Z,9.58
2019-04-06T18:02:21.349Z,9.20
2019-04-06T18:05:08.992Z,10.13
2019-04-06T18:07:59.380Z,8.88
2019-04-06T18:10:58.749Z,10.00
2019-04-06T18:13:48.910Z,7.78
2019-04-06T18:16:18.748Z,13.10
2019-04-06T18:18:46.684Z,9.70
2019-04-06T18:21:14.550Z,9.18
2019-04-06T18:23:42.278Z,8.68
2019-04-06T18:26:10.402Z,10.82
2019-04-06T18:28:38.204Z,13.75
2019-04-06T18:31:12.477Z,9.25
2019-04-06T18:33:40.246Z,9.03
2019-04-06T18:36:08.650Z,8.70
2019-04-06T18:38:43.280Z,8.68
2019-04-06T18:41:11.817Z,9.45
2019-04-06T18:43:40.531Z,7.50
2019-04-06T18:46:08.347Z,8.28
2019-04-06T18:48:39.473Z,8.23
2019-04-06T18:51:07.825Z,7.50
2019-04-06T18:53:35.761Z,10.68
2019-04-06T18:56:04.244Z,7.28
2019-04-06T18:58:31.707Z,13.98
2019-04-06T19:00:59.804Z,9.58
2019-04-06T19:03:27.582Z,7.80
2019-04-06T19:05:56.206Z,9.30
2019-04-06T19:08:23.758Z,9.90
2019-04-06T19:10:52.570Z,13.58
2019-04-06T19:13:20.742Z,12.13
2019-04-06T19:15:49.001Z,9.58
2019-04-06T19:18:16.826Z,11.05
2019-04-06T19:20:44.439Z,9.35
2019-04-06T19:23:13.777Z,12.80
2019-04-06T19:25:42.125Z,8.55
2019-04-06T19:28:10.256Z,8.00
2019-04-06T19:30:38.583Z,8.43
2019-04-06T19:33:06.749Z,11.73
2019-04-06T19:35:35.538Z,8.93
2019-04-06T19:38:03.508Z,9.95
2019-04-06T19:40:31.937Z,9.35
2019-04-06T19:43:01.748Z,9.50
2019-04-06T19:45:30.482Z,7.77
2019-04-06T19:47:58.670Z,6.95
2019-04-06T19:50:27.227Z,9.28
2019-04-06T19:52:55.238Z,7.75
2019-04-06T19:55:23.594Z,9.58
2019-04-06T19:57:51.739Z,6.30
2019-04-06T20:00:20.309Z,9.45
2019-04-06T20:02:48.328Z,8.18
2019-04-06T20:05:16.698Z,6.45
2019-04-06T20:07:44.582Z,7.78
2019-04-06T20:10:13.932Z,6.85
2019-04-06T20:12:41.612Z,7.40
2019-04-06T20:15:09.281Z,7.12
2019-04-06T20:17:37.478Z,7.50
2019-04-06T20:20:05.609Z,7.83
2019-04-06T20:22:34.124Z,8.35
2019-04-06T20:25:02.184Z,5.97
2019-04-06T20:27:30.605Z,6.03
2019-04-06T20:29:58.750Z,6.15
2019-04-06T20:32:28.311Z,7.03
2019-04-06T20:34:55.892Z,6.97
2019-04-06T20:37:25.194Z,6.85
2019-04-06T20:39:54.162Z,4.80
2019-04-06T20:42:26.871Z,4.97
2019-04-06T20:44:54.921Z,5.62
2019-04-06T20:47:23.183Z,4.53
2019-04-06T20:49:50.386Z,8.48
2019-04-06T20:52:18.328Z,4.20
2019-04-06T20:54:46.213Z,6.00
2019-04-06T20:57:15.520Z,5.87
2019-04-06T20:59:44.805Z,6.10
2019-04-06T21:02:12.951Z,6.00
2019-04-06T21:04:41.079Z,6.50
2019-04-06T21:07:09.500Z,6.05
2019-04-06T21:09:37.481Z,5.83
2019-04-06T21:12:05.275Z,4.22
2019-04-06T21:14:33.237Z,4.47
2019-04-06T21:17:01.433Z,4.12
2019-04-06T21:19:30.388Z,4.45
2019-04-06T21:21:59.012Z,4.58
2019-04-06T21:24:28.277Z,4.15
2019-04-06T21:26:55.808Z,3.90
2019-04-06T21:29:23.498Z,6.65
2019-04-06T21:31:51.935Z,5.47
2019-04-06T21:34:19.631Z,5.05
2019-04-06T21:36:47.314Z,4.30
2019-04-06T21:39:14.949Z,4.30
2019-04-06T21:41:42.977Z,6.22
2019-04-06T21:44:12.876Z,4.33
2019-04-06T21:46:41.295Z,4.85
2019-04-06T21:49:09.635Z,4.37
2019-04-06T21:51:37.919Z,3.33
2019-04-06T21:54:06.690Z,4.25
2019-04-06T21:56:35.915Z,5.42
2019-04-06T21:59:04.064Z,5.70
2019-04-06T22:01:31.908Z,5.22
2019-04-06T22:03:59.855Z,4.00
2019-04-06T22:06:27.513Z,6.30
2019-04-06T22:08:55.201Z,6.30
2019-04-06T22:11:24.038Z,4.10
2019-04-06T22:13:52.237Z,6.22
2019-04-06T22:16:20.137Z,5.03
2019-04-06T22:18:47.458Z,8.15
2019-04-06T22:21:16.263Z,5.50
2019-04-06T22:23:45.975Z,5.35
2019-04-06T22:26:14.553Z,7.37
2019-04-06T22:28:42.398Z,3.70
2019-04-06T22:31:09.971Z,4.62
2019-04-06T22:33:38.218Z,5.40
2019-04-06T22:36:06.644Z,3.77
2019-04-06T22:38:34.314Z,3.85
2019-04-06T22:41:03.903Z,4.60
2019-04-06T22:43:31.876Z,5.83
2019-04-06T22:45:59.920Z,4.55
2019-04-06T22:48:28.091Z,6.55
2019-04-06T22:50:55.627Z,6.12
2019-04-06T22:53:23.550Z,7.90
2019-04-06T22:55:51.160Z,4.65
2019-04-06T22:58:18.706Z,9.93
2019-04-06T23:00:50.984Z,6.00
2019-04-06T23:03:32.365Z,5.05
2019-04-06T23:06:04.027Z,5.58
2019-04-06T23:08:31.616Z,4.20
2019-04-06T23:10:59.075Z,6.30
2019-04-06T23:13:27.912Z,5.05
2019-04-06T23:15:56.413Z,5.50
2019-04-06T23:18:25.692Z,5.60
2019-04-06T23:20:53.855Z,5.37
2019-04-06T23:23:22.053Z,4.87
2019-04-06T23:25:49.543Z,6.58
2019-04-06T23:28:16.945Z,5.85
2019-04-06T23:30:45.260Z,6.15
2019-04-06T23:33:13.196Z,5.08
2019-04-06T23:35:41.269Z,6.62
2019-04-06T23:38:09.094Z,6.72
2019-04-06T23:40:36.736Z,8.45
2019-04-06T23:43:04.385Z,6.55
2019-04-06T23:45:32.467Z,4.90
2019-04-06T23:48:00.692Z,5.53
2019-04-06T23:50:28.386Z,3.72
2019-04-06T23:52:56.260Z,5.10
2019-04-06T23:55:23.932Z,4.42
2019-04-06T23:57:51.502Z,4.92
